createdAt,value
2016-04-13T00:00:06.079Z,1008.15
2016-04-13T00:01:06.097Z,1008.14
2016-04-13T00:02:06.116Z,1008.14
2016-04-13T00:03:06.133Z,1008.13
2016-04-13T00:04:06.152Z,1008.17
2016-04-13T00:05:06.171Z,1008.14
2016-04-13T00:06:06.188Z,1008.14
2016-04-13T00:07:06.207Z,1008.15
2016-04-13T00:08:18.964Z,1008.14
2016-04-13T00:09:06.248Z,1008.15
2016-04-13T00:10:06.267Z,1008.2
2016-04-13T00:11:06.878Z,1008.2
2016-04-13T00:12:06.303Z,1008.14
2016-04-13T00:13:06.306Z,1008.13
2016-04-13T00:14:06.324Z,1008.13
2016-04-13T00:15:06.342Z,1008.12
2016-04-13T00:16:06.408Z,1008.13
2016-04-13T00:17:06.378Z,1008.14
2016-04-13T00:18:06.397Z,1008.18
2016-04-13T00:19:06.416Z,1008.22
2016-04-13T00:20:06.636Z,1008.25
2016-04-13T00:21:12.719Z,1008.3
2016-04-13T00:22:06.472Z,1008.34
2016-04-13T00:23:06.488Z,1008.43
2016-04-13T00:24:06.508Z,1008.5
2016-04-13T00:25:32.185Z,1008.46
2016-04-13T00:26:16.669Z,1008.38
2016-04-13T00:27:35.893Z,1008.4
2016-04-13T00:28:16.705Z,1008.41
2016-04-13T00:30:26.323Z,1008.62
2016-04-13T00:31:26.341Z,1008.57
2016-04-13T00:32:26.360Z,1008.54
2016-04-13T00:33:26.378Z,1008.55
2016-04-13T00:34:39.146Z,1008.52
2016-04-13T00:35:32.680Z,1008.49
2016-04-13T00:36:45.682Z,1008.5
2016-04-13T00:37:26.451Z,1008.5
2016-04-13T00:38:45.672Z,1008.47
2016-04-13T00:39:26.690Z,1008.48
2016-04-13T00:40:26.507Z,1008.5
2016-04-13T00:41:26.540Z,1008.51
2016-04-13T00:42:26.543Z,1008.49
2016-04-13T00:43:39.295Z,1008.49
2016-04-13T00:44:26.579Z,1008.46
2016-04-13T00:45:45.801Z,1008.44
2016-04-13T00:46:26.601Z,1008.42
2016-04-13T00:47:26.634Z,1008.37
2016-04-13T00:48:26.637Z,1008.4
2016-04-13T00:49:26.672Z,1008.37
2016-04-13T00:50:26.689Z,1008.39
2016-04-13T00:51:26.738Z,1008.33
2016-04-13T00:52:32.991Z,1008.41
2016-04-13T00:53:26.728Z,1008.41
2016-04-13T00:54:39.497Z,1008.39
2016-04-13T00:55:26.765Z,1008.35
2016-04-13T00:56:52.486Z,1008.33
2016-04-13T00:57:30.771Z,1008.38
2016-04-13T00:58:30.788Z,1008.39
2016-04-13T00:59:30.807Z,1008.37
2016-04-13T01:00:30.826Z,1008.4
2016-04-13T01:01:30.843Z,1008.41
2016-04-13T01:02:43.596Z,1008.37
2016-04-13T01:03:30.880Z,1008.37
2016-04-13T01:04:30.898Z,1008.38
2016-04-13T01:05:30.917Z,1008.34
2016-04-13T01:06:30.935Z,1008.33
2016-04-13T01:07:30.954Z,1008.3
2016-04-13T01:09:46.147Z,1008.25
2016-04-13T01:10:46.149Z,1008.28
2016-04-13T01:11:46.167Z,1008.25
2016-04-13T01:12:58.956Z,1008.22
2016-04-13T01:13:58.943Z,1008.32
2016-04-13T01:15:11.898Z,1008.28
2016-04-13T01:15:46.244Z,1008.32
2016-04-13T01:16:46.279Z,1008.32
2016-04-13T01:18:11.953Z,1008.34
2016-04-13T01:19:46.318Z,1008.4
2016-04-13T01:20:46.337Z,1008.37
2016-04-13T01:21:46.355Z,1008.42
2016-04-13T01:22:46.361Z,1008.36
2016-04-13T01:23:46.395Z,1008.36
2016-04-13T01:24:59.133Z,1008.33
2016-04-13T01:25:47.025Z,1008.34
2016-04-13T01:26:46.450Z,1008.32
2016-04-13T01:27:46.469Z,1008.31
2016-04-13T01:28:46.471Z,1008.33
2016-04-13T01:29:46.489Z,1008.29
2016-04-13T01:30:46.524Z,1008.33
2016-04-13T01:31:46.541Z,1008.23
2016-04-13T01:32:46.560Z,1008.28
2016-04-13T01:33:46.563Z,1008.25
2016-04-13T01:34:46.581Z,1008.22
2016-04-13T01:35:46.599Z,1008.19
2016-04-13T01:36:46.617Z,1008.25
2016-04-13T01:37:46.635Z,1008.28
2016-04-13T01:38:46.654Z,1008.28
2016-04-13T01:39:59.407Z,1008.26
2016-04-13T01:40:46.691Z,1008.22
2016-04-13T01:41:46.709Z,1008.18
2016-04-13T01:42:46.821Z,1008.23
2016-04-13T01:43:46.746Z,1008.2
2016-04-13T01:44:56.296Z,1008.16
2016-04-13T01:45:56.314Z,1008.15
2016-04-13T01:46:56.332Z,1008.14
2016-04-13T01:47:56.351Z,1008.14
2016-04-13T01:48:56.369Z,1008.16
2016-04-13T01:49:56.387Z,1008.16
2016-04-13T01:50:56.405Z,1008.15
2016-04-13T01:51:56.423Z,1008.15
2016-04-13T01:52:56.458Z,1008.11
2016-04-13T01:53:56.475Z,1008.07
2016-04-13T01:55:06.021Z,1008.13
2016-04-13T01:56:06.097Z,1008.03
2016-04-13T01:57:18.893Z,1007.95
2016-04-13T01:58:06.221Z,1007.93
2016-04-13T01:59:06.281Z,1007.91
2016-04-13T02:00:06.336Z,1007.86
2016-04-13T02:01:06.369Z,1007.8
2016-04-13T02:02:12.654Z,1007.65
2016-04-13T02:03:07.859Z,1007.61
2016-04-13T02:04:06.470Z,1007.61
2016-04-13T02:05:09.533Z,1007.65
2016-04-13T02:06:06.526Z,1007.69
2016-04-13T02:07:06.549Z,1007.69
2016-04-13T02:08:06.573Z,1007.65
2016-04-13T02:09:06.581Z,1007.61
2016-04-13T02:10:19.353Z,1007.57
2016-04-13T02:11:06.624Z,1007.6
2016-04-13T02:12:32.336Z,1007.63
2016-04-13T02:13:06.679Z,1007.66
2016-04-13T02:14:06.685Z,1007.66
2016-04-13T02:15:07.329Z,1007.69
2016-04-13T02:16:06.724Z,1007.66
2016-04-13T02:17:06.759Z,1007.62
2016-04-13T02:18:06.778Z,1007.67
2016-04-13T02:19:06.796Z,1007.72
2016-04-13T02:20:06.799Z,1007.8
2016-04-13T02:21:06.819Z,1007.81
2016-04-13T02:22:06.837Z,1007.84
2016-04-13T02:23:06.872Z,1007.89
2016-04-13T02:24:06.890Z,1007.87
2016-04-13T02:25:19.643Z,1007.88
2016-04-13T02:26:06.928Z,1007.86
2016-04-13T02:27:06.930Z,1007.87
2016-04-13T02:28:06.964Z,1007.91
2016-04-13T02:29:06.982Z,1007.86
2016-04-13T02:30:07.001Z,1007.85
2016-04-13T02:31:07.004Z,1007.87
2016-04-13T02:32:07.037Z,1007.87
2016-04-13T02:33:07.040Z,1007.85
2016-04-13T02:34:07.215Z,1007.81
2016-04-13T02:35:07.092Z,1007.84
2016-04-13T02:36:07.142Z,1007.86
2016-04-13T02:37:07.114Z,1007.84
2016-04-13T02:38:07.131Z,1007.88
2016-04-13T02:39:07.166Z,1007.81
2016-04-13T02:40:07.169Z,1007.82
2016-04-13T02:41:07.186Z,1007.78
2016-04-13T02:42:19.955Z,1007.82
2016-04-13T02:43:07.224Z,1007.85
2016-04-13T02:44:07.257Z,1007.87
2016-04-13T02:45:07.274Z,1007.89
2016-04-13T02:46:07.277Z,1007.91
2016-04-13T02:47:07.360Z,1007.88
2016-04-13T02:48:07.315Z,1007.96
2016-04-13T02:49:07.349Z,1007.98
2016-04-13T02:50:07.351Z,1007.97
2016-04-13T02:51:13.666Z,1007.98
2016-04-13T02:52:07.388Z,1007.95
2016-04-13T02:53:07.406Z,1007.98
2016-04-13T02:54:07.440Z,1007.96
2016-04-13T02:55:07.442Z,1007.95
2016-04-13T02:56:07.461Z,1007.93
2016-04-13T02:57:07.479Z,1007.94
2016-04-13T02:58:13.778Z,1007.93
2016-04-13T02:59:07.531Z,1007.89
2016-04-13T03:00:07.644Z,1007.86
2016-04-13T03:01:07.553Z,1007.81
2016-04-13T03:02:07.587Z,1007.8
2016-04-13T03:03:07.589Z,1007.75
2016-04-13T03:04:07.623Z,1007.77
2016-04-13T03:05:20.376Z,1007.73
2016-04-13T03:06:07.661Z,1007.68
2016-04-13T03:07:07.678Z,1007.72
2016-04-13T03:08:26.541Z,1007.71
2016-04-13T03:09:13.824Z,1007.73
2016-04-13T03:10:13.842Z,1007.72
2016-04-13T03:11:13.861Z,1007.72
2016-04-13T03:13:13.897Z,1007.8
2016-04-13T03:14:13.915Z,1007.8
2016-04-13T03:15:23.481Z,1007.8
2016-04-13T03:16:23.500Z,1007.77
2016-04-13T03:17:23.518Z,1007.74
2016-04-13T03:18:23.536Z,1007.71
2016-04-13T03:19:23.554Z,1007.71
2016-04-13T03:20:23.573Z,1007.76
2016-04-13T03:21:23.622Z,1007.8
2016-04-13T03:22:23.610Z,1007.86
2016-04-13T03:23:23.627Z,1007.9
2016-04-13T03:24:23.645Z,1007.9
2016-04-13T03:25:25.070Z,1007.9
2016-04-13T03:26:23.682Z,1007.87
2016-04-13T03:27:49.375Z,1007.88
2016-04-13T03:28:33.253Z,1007.9
2016-04-13T03:29:52.459Z,1007.91
2016-04-13T03:31:07.696Z,1007.89
2016-04-13T03:32:07.714Z,1007.94
2016-04-13T03:33:07.733Z,1007.91
2016-04-13T03:34:07.751Z,1007.95
2016-04-13T03:35:20.503Z,1007.94
2016-04-13T03:36:07.787Z,1007.92
2016-04-13T03:37:33.496Z,1007.9
2016-04-13T03:38:30.108Z,1007.85
2016-04-13T03:39:17.374Z,1007.89
2016-04-13T03:40:17.397Z,1007.82
2016-04-13T03:41:32.621Z,1007.83
2016-04-13T03:42:32.638Z,1007.86
2016-04-13T03:44:45.238Z,1007.83
2016-04-13T03:45:42.226Z,1007.82
2016-04-13T03:47:04.587Z,1007.78
2016-04-13T03:48:04.606Z,1007.81
2016-04-13T03:49:10.890Z,1007.84
2016-04-13T03:50:06.064Z,1007.81
2016-04-13T03:51:04.660Z,1007.78
2016-04-13T03:52:04.679Z,1007.76
2016-04-13T03:53:17.431Z,1007.78
2016-04-13T03:54:04.731Z,1007.75
2016-04-13T03:55:04.734Z,1007.81
2016-04-13T03:56:07.831Z,1007.8
2016-04-13T03:57:17.380Z,1007.85
2016-04-13T03:58:43.089Z,1007.83
2016-04-13T03:59:52.654Z,1007.87
2016-04-13T04:00:58.922Z,1007.91
2016-04-13T04:01:52.690Z,1007.85
2016-04-13T04:03:05.442Z,1007.86
2016-04-13T04:03:52.727Z,1007.88
2016-04-13T04:05:11.948Z,1007.93
2016-04-13T04:05:54.169Z,1007.94
2016-04-13T04:06:52.766Z,1007.96
2016-04-13T04:07:52.785Z,1007.97
2016-04-13T04:08:52.803Z,1007.95
2016-04-13T04:10:02.352Z,1007.96
2016-04-13T04:11:02.371Z,1008
2016-04-13T04:12:17.546Z,1007.99
2016-04-13T04:13:17.564Z,1007.96
2016-04-13T04:15:32.791Z,1007.96
2016-04-13T04:16:32.793Z,1007.97
2016-04-13T04:18:47.971Z,1007.98
2016-04-13T04:19:48.004Z,1007.97
2016-04-13T04:20:48.023Z,1008.01
2016-04-13T04:21:57.618Z,1007.98
2016-04-13T04:22:57.637Z,1007.98
2016-04-13T04:23:57.656Z,1007.97
2016-04-13T04:25:10.409Z,1007.96
2016-04-13T04:26:03.958Z,1008.04
2016-04-13T04:27:16.914Z,1008.03
2016-04-13T04:28:16.932Z,1008.11
2016-04-13T04:28:57.748Z,1008.08
2016-04-13T04:31:10.347Z,1008.06
2016-04-13T04:32:07.334Z,1008.01
2016-04-13T04:33:26.556Z,1008.03
2016-04-13T04:34:10.417Z,1007.97
2016-04-13T04:35:10.436Z,1007.99
2016-04-13T04:36:13.547Z,1008.03
2016-04-13T04:37:13.566Z,1008
2016-04-13T04:38:13.584Z,1008.07
2016-04-13T04:39:26.336Z,1008.08
2016-04-13T04:40:13.621Z,1008.11
2016-04-13T04:41:32.845Z,1008.08
2016-04-13T04:42:19.736Z,1008.14
2016-04-13T04:43:16.817Z,1008.14
2016-04-13T04:44:16.741Z,1008.17
2016-04-13T04:45:29.556Z,1008.17
2016-04-13T04:46:16.777Z,1008.14
2016-04-13T04:47:42.485Z,1008.12
2016-04-13T04:48:16.813Z,1008.1
2016-04-13T04:49:16.832Z,1008.08
2016-04-13T04:50:16.851Z,1008.11
2016-04-13T04:51:16.869Z,1008.07
2016-04-13T04:52:23.168Z,1008.13
2016-04-13T04:53:16.906Z,1008.09
2016-04-13T04:54:16.923Z,1008.09
2016-04-13T04:55:16.957Z,1008.09
2016-04-13T04:56:16.976Z,1008.14
2016-04-13T04:57:16.995Z,1008.12
2016-04-13T04:58:17.013Z,1008.13
2016-04-13T04:59:29.751Z,1008.12
2016-04-13T05:00:17.050Z,1008.14
2016-04-13T05:01:36.273Z,1008.13
2016-04-13T05:02:17.070Z,1008.13
2016-04-13T05:03:42.779Z,1008.12
2016-04-13T05:04:26.717Z,1008.07
2016-04-13T05:05:26.750Z,1008.04
2016-04-13T05:06:29.894Z,1008.09
2016-04-13T05:07:29.912Z,1008.1
2016-04-13T05:08:29.914Z,1008.14
2016-04-13T05:09:45.123Z,1008.12
2016-04-13T05:10:45.142Z,1008.14
2016-04-13T05:11:57.894Z,1008.15
2016-04-13T05:12:45.788Z,1008.14
2016-04-13T05:14:04.415Z,1008.14
2016-04-13T05:14:45.215Z,1008.15
2016-04-13T05:16:10.904Z,1008.13
2016-04-13T05:16:57.985Z,1008.2
2016-04-13T05:19:00.585Z,1008.19
2016-04-13T05:20:00.604Z,1008.18
2016-04-13T05:21:00.621Z,1008.21
2016-04-13T05:22:15.828Z,1008.21
2016-04-13T05:23:15.845Z,1008.19
2016-04-13T05:24:15.879Z,1008.24
2016-04-13T05:25:22.163Z,1008.25
2016-04-13T05:26:15.916Z,1008.25
2016-04-13T05:27:35.140Z,1008.24
2016-04-13T05:28:15.953Z,1008.31
2016-04-13T05:29:15.971Z,1008.35
2016-04-13T05:30:25.552Z,1008.32
2016-04-13T05:31:25.586Z,1008.36
2016-04-13T05:32:25.589Z,1008.36
2016-04-13T05:33:31.872Z,1008.38
2016-04-13T05:34:25.642Z,1008.42
2016-04-13T05:35:25.644Z,1008.39
2016-04-13T05:36:25.662Z,1008.4
2016-04-13T05:37:25.680Z,1008.37
2016-04-13T05:38:25.714Z,1008.39
2016-04-13T05:39:51.408Z,1008.4
2016-04-13T05:40:25.736Z,1008.41
2016-04-13T05:42:35.305Z,1008.41
2016-04-13T05:43:35.339Z,1008.41
2016-04-13T05:44:48.077Z,1008.35
2016-04-13T05:45:35.360Z,1008.36
2016-04-13T05:46:54.582Z,1008.38
2016-04-13T05:47:38.491Z,1008.34
2016-04-13T05:48:38.509Z,1008.36
2016-04-13T05:49:38.512Z,1008.29
2016-04-13T05:50:39.140Z,1008.29
2016-04-13T05:51:38.564Z,1008.31
2016-04-13T05:52:38.582Z,1008.27
2016-04-13T05:53:38.930Z,1008.29
2016-04-13T05:54:51.338Z,1008.29
2016-04-13T05:55:38.637Z,1008.32
2016-04-13T05:56:38.656Z,1008.41
2016-04-13T05:57:51.409Z,1008.35
2016-04-13T05:59:38.711Z,1008.36
2016-04-13T06:00:38.729Z,1008.34
2016-04-13T06:01:56.951Z,1008.34
2016-04-13T06:02:56.969Z,1008.3
2016-04-13T06:03:56.987Z,1008.28
2016-04-13T06:04:58.427Z,1008.29
2016-04-13T06:05:57.024Z,1008.26
2016-04-13T06:06:57.198Z,1008.3
2016-04-13T06:07:57.076Z,1008.34
2016-04-13T06:08:57.095Z,1008.3
2016-04-13T06:10:16.363Z,1008.3
2016-04-13T06:11:22.803Z,1008.34
2016-04-13T06:12:57.168Z,1008.43
2016-04-13T06:13:57.186Z,1008.41
2016-04-13T06:14:57.219Z,1008.47
2016-04-13T06:15:57.222Z,1008.47
2016-04-13T06:16:57.241Z,1008.48
2016-04-13T06:17:57.868Z,1008.51
2016-04-13T06:18:57.277Z,1008.53
2016-04-13T06:19:57.905Z,1008.55
2016-04-13T06:21:10.064Z,1008.54
2016-04-13T06:22:23.020Z,1008.52
2016-04-13T06:23:06.899Z,1008.56
2016-04-13T06:24:32.588Z,1008.53
2016-04-13T06:25:06.934Z,1008.53
2016-04-13T06:26:06.952Z,1008.5
2016-04-13T06:27:10.862Z,1008.5
2016-04-13T06:28:10.865Z,1008.51
2016-04-13T06:29:10.945Z,1008.54
2016-04-13T06:30:10.917Z,1008.51
2016-04-13T06:31:10.935Z,1008.52
2016-04-13T06:32:17.218Z,1008.52
2016-04-13T06:33:10.971Z,1008.51
2016-04-13T06:34:11.005Z,1008.54
2016-04-13T06:35:30.226Z,1008.51
2016-04-13T06:36:30.245Z,1008.48
2016-04-13T06:37:45.439Z,1008.58
2016-04-13T06:38:45.456Z,1008.54
2016-04-13T06:39:58.193Z,1008.55
2016-04-13T06:40:45.493Z,1008.57
2016-04-13T06:41:45.511Z,1008.54
2016-04-13T06:42:45.530Z,1008.54
2016-04-13T06:43:58.282Z,1008.56
2016-04-13T06:44:45.566Z,1008.57
2016-04-13T06:45:45.600Z,1008.57
2016-04-13T06:46:45.603Z,1008.52
2016-04-13T06:48:45.639Z,1008.53
2016-04-13T06:49:45.720Z,1008.49
2016-04-13T06:51:01.536Z,1008.48
2016-04-13T06:52:01.569Z,1008.5
2016-04-13T06:53:01.588Z,1008.42
2016-04-13T06:54:01.590Z,1008.43
2016-04-13T06:55:27.296Z,1008.42
2016-04-13T06:56:11.190Z,1008.43
2016-04-13T06:57:11.208Z,1008.41
2016-04-13T06:58:12.648Z,1008.4
2016-04-13T06:59:11.245Z,1008.42
2016-04-13T07:00:11.263Z,1008.41
2016-04-13T07:02:26.471Z,1008.43
2016-04-13T07:03:26.506Z,1008.41
2016-04-13T07:04:26.508Z,1008.44
2016-04-13T07:05:26.542Z,1008.44
2016-04-13T07:06:26.560Z,1008.4
2016-04-13T07:07:26.578Z,1008.42
2016-04-13T07:08:26.597Z,1008.43
2016-04-13T07:09:39.352Z,1008.43
2016-04-13T07:10:26.633Z,1008.47
2016-04-13T07:11:26.652Z,1008.42
2016-04-13T07:12:39.407Z,1008.47
2016-04-13T07:13:26.688Z,1008.58
2016-04-13T07:14:26.706Z,1008.51
2016-04-13T07:15:26.741Z,1008.52
2016-04-13T07:16:41.949Z,1008.39
2016-04-13T07:17:41.967Z,1008.54
2016-04-13T07:18:54.642Z,1008.38
2016-04-13T07:20:17.301Z,1008.37
2016-04-13T07:21:07.586Z,1008.36
2016-04-13T07:22:07.744Z,1008.36
2016-04-13T07:23:20.356Z,1008.35
2016-04-13T07:24:07.641Z,1008.38
2016-04-13T07:25:26.861Z,1008.4
2016-04-13T07:26:33.364Z,1008.34
2016-04-13T07:27:07.710Z,1008.36
2016-04-13T07:29:17.279Z,1008.33
2016-04-13T07:31:32.502Z,1008.34
2016-04-13T07:32:32.536Z,1008.3
2016-04-13T07:33:43.510Z,1008.3
2016-04-13T07:34:43.528Z,1008.33
2016-04-13T07:35:43.563Z,1008.36
2016-04-13T07:36:43.581Z,1008.36
2016-04-13T07:37:43.600Z,1008.33
2016-04-13T07:38:44.243Z,1008.35
2016-04-13T07:39:43.667Z,1008.33
2016-04-13T07:40:43.670Z,1008.33
2016-04-13T07:41:43.704Z,1008.4
2016-04-13T07:42:49.988Z,1008.32
2016-04-13T07:43:43.741Z,1008.29
2016-04-13T07:44:56.508Z,1008.29
2016-04-13T07:45:43.792Z,1008.28
2016-04-13T07:46:43.811Z,1008.31
2016-04-13T07:47:43.844Z,1008.27
2016-04-13T07:48:53.285Z,1008.27
2016-04-13T07:49:47.053Z,1008.27
2016-04-13T07:50:59.806Z,1008.26
2016-04-13T07:51:47.091Z,1008.31
2016-04-13T07:53:06.327Z,1008.27
2016-04-13T07:53:50.533Z,1008.25
2016-04-13T07:55:16.223Z,1008.27
2016-04-13T07:57:19.354Z,1008.25
2016-04-13T07:58:03.246Z,1008.18
2016-04-13T07:59:22.469Z,1008.22
2016-04-13T08:00:06.362Z,1008.18
2016-04-13T08:01:32.068Z,1008.2
2016-04-13T08:02:06.430Z,1008.19
2016-04-13T08:03:32.120Z,1008.2
2016-04-13T08:05:35.234Z,1008.16
2016-04-13T08:06:19.143Z,1008.13
2016-04-13T08:07:25.428Z,1008.14
2016-04-13T08:08:19.184Z,1008.13
2016-04-13T08:09:38.408Z,1008.12
2016-04-13T08:10:19.268Z,1008.19
2016-04-13T08:12:35.039Z,1008.17
2016-04-13T08:13:35.057Z,1008.17
2016-04-13T08:14:35.076Z,1008.2
2016-04-13T08:15:35.094Z,1008.22
2016-04-13T08:16:35.128Z,1008.23
2016-04-13T08:17:47.883Z,1008.22
2016-04-13T08:18:35.180Z,1008.21
2016-04-13T08:19:54.499Z,1008.19
2016-04-13T08:20:38.391Z,1008.15
2016-04-13T08:21:57.613Z,1008.16
2016-04-13T08:22:44.710Z,1008.07
2016-04-13T08:23:38.463Z,1008.12
2016-04-13T08:24:55.200Z,1008.16
2016-04-13T08:25:55.077Z,1008.15
2016-04-13T08:26:55.111Z,1008.14
2016-04-13T08:28:07.879Z,1008.16
2016-04-13T08:29:14.351Z,1008.23
2016-04-13T08:29:55.166Z,1008.17
2016-04-13T08:30:55.200Z,1008.25
2016-04-13T08:31:55.218Z,1008.26
2016-04-13T08:32:55.236Z,1008.2
2016-04-13T08:33:58.333Z,1008.18
2016-04-13T08:34:58.367Z,1008.17
2016-04-13T08:35:58.384Z,1008.13
2016-04-13T08:36:59.826Z,1008.09
2016-04-13T08:38:11.172Z,1008.11
2016-04-13T08:38:58.456Z,1008.1
2016-04-13T08:40:24.161Z,1008.17
2016-04-13T08:41:33.711Z,1008.13
2016-04-13T08:42:08.042Z,1008.13
2016-04-13T08:43:08.075Z,1008.14
2016-04-13T08:44:55.221Z,1008.18
2016-04-13T08:45:36.049Z,1008.21
2016-04-13T08:46:36.068Z,1008.23
2016-04-13T08:47:42.355Z,1008.22
2016-04-13T08:48:42.389Z,1008.2
2016-04-13T08:49:55.345Z,1008.24
2016-04-13T08:50:36.158Z,1008.22
2016-04-13T08:51:36.175Z,1008.26
2016-04-13T08:52:45.946Z,1008.25
2016-04-13T08:53:45.965Z,1008.27
2016-04-13T08:54:45.983Z,1008.3
2016-04-13T08:55:46.002Z,1008.28
2016-04-13T08:56:58.755Z,1008.31
2016-04-13T08:57:46.054Z,1008.3
2016-04-13T08:58:46.072Z,1008.29
2016-04-13T08:59:58.824Z,1008.33
2016-04-13T09:00:46.312Z,1008.31
2016-04-13T09:02:11.815Z,1008.28
2016-04-13T09:03:08.442Z,1008.37
2016-04-13T09:04:14.726Z,1008.37
2016-04-13T09:05:29.916Z,1008.33
2016-04-13T09:06:29.981Z,1008.35
2016-04-13T09:07:29.953Z,1008.37
2016-04-13T09:08:29.987Z,1008.36
2016-04-13T09:09:30.614Z,1008.39
2016-04-13T09:10:30.023Z,1008.4
2016-04-13T09:11:31.464Z,1008.37
2016-04-13T09:12:30.075Z,1008.35
2016-04-13T09:13:49.300Z,1008.39
2016-04-13T09:14:30.316Z,1008.39
2016-04-13T09:15:55.821Z,1008.39
2016-04-13T09:16:39.714Z,1008.37
2016-04-13T09:17:39.732Z,1008.4
2016-04-13T09:19:05.422Z,1008.46
2016-04-13T09:19:49.332Z,1008.43
2016-04-13T09:20:49.350Z,1008.49
2016-04-13T09:21:55.634Z,1008.46
2016-04-13T09:22:55.668Z,1008.45
2016-04-13T09:24:02.155Z,1008.47
2016-04-13T09:24:49.438Z,1008.49
2016-04-13T09:25:49.473Z,1008.55
2016-04-13T09:26:49.491Z,1008.56
2016-04-13T09:27:49.510Z,1008.56
2016-04-13T09:28:49.544Z,1008.59
2016-04-13T09:29:49.562Z,1008.56
2016-04-13T09:30:49.580Z,1008.56
2016-04-13T09:31:49.614Z,1008.59
2016-04-13T09:32:49.632Z,1008.61
2016-04-13T09:33:55.931Z,1008.6
2016-04-13T09:34:49.668Z,1008.62
2016-04-13T09:35:49.703Z,1008.69
2016-04-13T09:36:49.736Z,1008.58
2016-04-13T09:37:49.756Z,1008.53
2016-04-13T09:38:49.773Z,1008.56
2016-04-13T09:40:15.479Z,1008.56
2016-04-13T09:40:59.372Z,1008.54
2016-04-13T09:42:18.594Z,1008.53
2016-04-13T09:42:59.409Z,1008.56
2016-04-13T09:43:59.442Z,1008.56
2016-04-13T09:45:02.524Z,1008.6
2016-04-13T09:46:02.542Z,1008.64
2016-04-13T09:47:08.841Z,1008.61
2016-04-13T09:48:02.610Z,1008.63
2016-04-13T09:49:02.628Z,1008.58
2016-04-13T09:50:04.069Z,1008.56
2016-04-13T09:51:02.681Z,1008.59
2016-04-13T09:52:21.902Z,1008.56
2016-04-13T09:53:02.717Z,1008.54
2016-04-13T09:54:02.744Z,1008.51
2016-04-13T09:55:06.556Z,1008.53
2016-04-13T09:56:09.485Z,1008.51
2016-04-13T09:57:09.519Z,1008.49
2016-04-13T09:58:09.569Z,1008.52
2016-04-13T09:59:09.572Z,1008.53
2016-04-13T10:00:22.318Z,1008.54
2016-04-13T10:01:09.630Z,1008.52
2016-04-13T10:02:09.649Z,1008.49
2016-04-13T10:03:28.870Z,1008.45
2016-04-13T10:05:50.573Z,1008.5
2016-04-13T10:06:24.901Z,1008.45
2016-04-13T10:07:24.950Z,1008.46
2016-04-13T10:08:24.968Z,1008.45
2016-04-13T10:09:24.986Z,1008.42
2016-04-13T10:10:25.005Z,1008.49
2016-04-13T10:11:25.039Z,1008.49
2016-04-13T10:12:32.761Z,1008.48
2016-04-13T10:13:27.591Z,1008.43
2016-04-13T10:14:29.719Z,1008.43
2016-04-13T10:15:28.753Z,1008.52
2016-04-13T10:16:26.771Z,1008.49
2016-04-13T10:17:25.181Z,1008.45
2016-04-13T10:18:44.417Z,1008.48
2016-04-13T10:19:25.233Z,1008.46
2016-04-13T10:20:50.941Z,1008.49
2016-04-13T10:21:34.941Z,1008.5
2016-04-13T10:22:34.975Z,1008.52
2016-04-13T10:23:34.994Z,1008.52
2016-04-13T10:24:47.749Z,1008.47
2016-04-13T10:25:54.252Z,1008.46
2016-04-13T10:26:35.064Z,1008.5
2016-04-13T10:29:09.510Z,1008.52
2016-04-13T10:29:50.325Z,1008.54
2016-04-13T10:30:50.350Z,1008.54
2016-04-13T10:31:50.368Z,1008.51
2016-04-13T10:32:50.590Z,1008.5
2016-04-13T10:34:09.639Z,1008.49
2016-04-13T10:34:53.423Z,1008.51
2016-04-13T10:35:53.458Z,1008.54
2016-04-13T10:38:03.289Z,1008.48
2016-04-13T10:39:03.323Z,1008.46
2016-04-13T10:40:03.342Z,1008.42
2016-04-13T10:41:03.375Z,1008.4
2016-04-13T10:42:09.659Z,1008.34
2016-04-13T10:43:16.146Z,1008.37
2016-04-13T10:44:03.446Z,1008.38
2016-04-13T10:45:22.776Z,1008.32
2016-04-13T10:46:03.482Z,1008.32
2016-04-13T10:47:06.844Z,1008.28
2016-04-13T10:48:06.863Z,1008.36
2016-04-13T10:49:08.319Z,1008.32
2016-04-13T10:50:06.914Z,1008.31
2016-04-13T10:51:06.949Z,1008.24
2016-04-13T10:52:06.966Z,1008.28
2016-04-13T10:53:07.001Z,1008.27
2016-04-13T10:54:07.019Z,1008.27
2016-04-13T10:55:20.522Z,1008.28
2016-04-13T10:56:20.010Z,1008.35
2016-04-13T10:58:39.827Z,1008.25
2016-04-13T10:59:35.533Z,1008.24
2016-04-13T11:01:01.407Z,1008.28
2016-04-13T11:02:06.596Z,1008.26
2016-04-13T11:03:03.486Z,1008.27
2016-04-13T11:04:53.844Z,1008.22
2016-04-13T11:05:41.422Z,1008.17
2016-04-13T11:06:38.697Z,1008.15
2016-04-13T11:07:53.856Z,1008.2
2016-04-13T11:09:31.080Z,1008.17
2016-04-13T11:10:39.709Z,1008.18
2016-04-13T11:13:00.273Z,1008.19
2016-04-13T11:14:08.219Z,1008.2
2016-04-13T11:15:27.376Z,1008.15
2016-04-13T11:16:42.162Z,1008.2
2016-04-13T11:17:39.229Z,1008.21
2016-04-13T11:19:08.280Z,1008.21
2016-04-13T11:20:13.556Z,1008.22
2016-04-13T11:21:20.340Z,1008.27
2016-04-13T11:22:08.824Z,1008.25
2016-04-13T11:23:08.374Z,1008.21
2016-04-13T11:24:08.394Z,1008.23
2016-04-13T11:25:09.039Z,1008.16
2016-04-13T11:27:23.641Z,1008.18
2016-04-13T11:28:23.660Z,1008.21
2016-04-13T11:29:23.711Z,1008.23
2016-04-13T11:30:23.714Z,1008.23
2016-04-13T11:31:24.356Z,1008.24
2016-04-13T11:32:49.452Z,1008.26
2016-04-13T11:33:46.081Z,1008.24
2016-04-13T11:34:58.833Z,1008.27
2016-04-13T11:35:56.289Z,1008.29
2016-04-13T11:37:06.089Z,1008.29
2016-04-13T11:38:06.107Z,1008.3
2016-04-13T11:39:06.125Z,1008.36
2016-04-13T11:40:06.159Z,1008.31
2016-04-13T11:41:06.177Z,1008.31
2016-04-13T11:42:12.477Z,1008.27
2016-04-13T11:43:06.245Z,1008.31
2016-04-13T11:44:06.263Z,1008.33
2016-04-13T11:45:12.595Z,1008.33
2016-04-13T11:46:25.522Z,1008.36
2016-04-13T11:47:19.071Z,1008.36
2016-04-13T11:49:21.562Z,1008.43
2016-04-13T11:50:21.579Z,1008.4
2016-04-13T11:51:24.722Z,1008.39
2016-04-13T11:52:24.741Z,1008.42
2016-04-13T11:53:25.384Z,1008.41
2016-04-13T11:54:34.934Z,1008.41
2016-04-13T11:55:34.953Z,1008.42
2016-04-13T11:56:38.861Z,1008.39
2016-04-13T11:57:38.895Z,1008.39
2016-04-13T11:58:38.913Z,1008.4
2016-04-13T11:59:39.150Z,1008.37
2016-04-13T12:00:38.966Z,1008.41
2016-04-13T12:01:39.000Z,1008.44
2016-04-13T12:02:39.018Z,1008.43
2016-04-13T12:03:51.786Z,1008.42
2016-04-13T12:04:39.070Z,1008.41
2016-04-13T12:06:04.761Z,1008.42
2016-04-13T12:06:49.247Z,1008.42
2016-04-13T12:07:49.297Z,1008.39
2016-04-13T12:08:49.300Z,1008.41
2016-04-13T12:10:02.069Z,1008.4
2016-04-13T12:10:50.775Z,1008.39
2016-04-13T12:12:02.122Z,1008.46
2016-04-13T12:12:49.405Z,1008.48
2016-04-13T12:14:08.627Z,1008.45
2016-04-13T12:14:49.442Z,1008.52
2016-04-13T12:16:15.148Z,1008.5
2016-04-13T12:17:26.200Z,1008.51
2016-04-13T12:18:38.905Z,1008.55
2016-04-13T12:19:26.190Z,1008.47
2016-04-13T12:20:45.427Z,1008.44
2016-04-13T12:21:32.507Z,1008.41
2016-04-13T12:22:51.948Z,1008.44
2016-04-13T12:23:42.044Z,1008.44
2016-04-13T12:25:01.468Z,1008.46
2016-04-13T12:25:55.018Z,1008.43
2016-04-13T12:27:10.334Z,1008.37
2016-04-13T12:28:10.243Z,1008.41
2016-04-13T12:29:10.260Z,1008.46
2016-04-13T12:30:13.123Z,1008.45
2016-04-13T12:31:10.298Z,1008.51
2016-04-13T12:32:13.362Z,1008.44
2016-04-13T12:33:10.366Z,1008.49
2016-04-13T12:34:10.384Z,1008.48
2016-04-13T12:35:29.608Z,1008.51
2016-04-13T12:38:23.209Z,1008.45
2016-04-13T12:41:47.984Z,1008.42
2016-04-13T12:44:03.176Z,1008.43
2016-04-13T12:45:03.194Z,1008.49
2016-04-13T12:46:03.228Z,1008.41
2016-04-13T12:47:03.247Z,1008.41
2016-04-13T12:48:22.486Z,1008.38
2016-04-13T12:49:03.299Z,1008.37
2016-04-13T12:51:25.620Z,1008.34
2016-04-13T12:52:25.638Z,1008.35
2016-04-13T12:53:40.952Z,1008.28
2016-04-13T12:54:40.971Z,1008.32
2016-04-13T12:55:41.005Z,1008.3
2016-04-13T12:56:41.024Z,1008.29
2016-04-13T12:57:41.058Z,1008.31
2016-04-13T12:58:41.279Z,1008.26
2016-04-13T12:59:41.110Z,1008.24
2016-04-13T13:01:00.331Z,1008.33
2016-04-13T13:01:44.209Z,1008.22
2016-04-13T13:03:03.431Z,1008.38